Time;durP1;ratioP1;P1;durP2;ratioP2;P2;SDS_P1;SDS_P2;PMS_P1;PMS_P2;Temp;Humidity;BMP_temperature;BMP_pressure;BME280_temperature;BME280_humidity;BME280_pressure;Samples;Min_cycle;Max_cycle;Signal;HPM_P1;HPM_P2
2022/11/07 00:01:39;;;;;;;;;;;12.40;99.90;;;;;;7344838;19;108612;-85
2022/11/07 00:04:06;;;;;;;;;;;12.40;99.90;;;;;;7345510;19;112820;-86
2022/11/07 00:06:36;;;;;;;;;;;12.50;99.90;;;;;;7349191;19;113273;-86
2022/11/07 00:09:03;;;;;;;;;;;12.40;99.90;;;;;;7346411;19;108283;-85
2022/11/07 00:11:30;;;;;;;;;;;12.50;99.90;;;;;;7345897;19;110347;-87
2022/11/07 00:13:57;;;;;;;;;;;12.40;99.90;;;;;;7344412;19;108527;-88
2022/11/07 00:16:25;;;;;;;;;;;12.50;99.90;;;;;;7345711;19;111488;-87
2022/11/07 00:18:52;;;;;;;;;;;12.50;99.90;;;;;;7343905;19;110663;-86
2022/11/07 00:21:19;;;;;;;;;;;12.50;99.90;;;;;;7342443;19;108904;-87
2022/11/07 00:23:46;;;;;;;;;;;12.50;99.90;;;;;;7346842;19;109882;-86
2022/11/07 00:26:13;;;;;;;;;;;12.50;99.90;;;;;;7343753;19;110013;-86
2022/11/07 00:28:42;;;;;;;;;;;12.50;99.90;;;;;;7352702;19;108857;-86
2022/11/07 00:31:09;;;;;;;;;;;12.50;99.90;;;;;;7343909;19;112774;-85
2022/11/07 00:33:36;;;;;;;;;;;12.50;99.90;;;;;;7342146;19;108794;-87
2022/11/07 00:36:03;;;;;;;;;;;12.40;99.90;;;;;;7343769;19;108637;-86
2022/11/07 00:38:30;;;;;;;;;;;12.40;99.90;;;;;;7346428;19;108910;-86
2022/11/07 00:40:58;;;;;;;;;;;12.40;99.90;;;;;;7346792;19;108709;-86
2022/11/07 00:43:26;;;;;;;;;;;12.40;99.90;;;;;;7351196;19;109642;-85
2022/11/07 00:45:53;;;;;;;;;;;12.40;99.90;;;;;;7347398;19;110372;-86
2022/11/07 00:48:19;;;;;;;;;;;12.40;99.90;;;;;;7372441;19;112531;-86
2022/11/07 00:50:46;;;;;;;;;;;12.40;99.90;;;;;;7379639;19;109012;-86
2022/11/07 00:53:13;;;;;;;;;;;12.40;99.90;;;;;;7376581;19;108708;-86
2022/11/07 00:55:41;;;;;;;;;;;12.40;99.90;;;;;;7377236;19;108060;-86
2022/11/07 00:58:09;;;;;;;;;;;12.40;99.90;;;;;;7373825;19;110873;-86
2022/11/07 01:00:40;;;;;;;;;;;12.40;99.90;;;;;;7375961;19;107945;-86
2022/11/07 01:05:57;;;;;;;;;;;12.40;99.90;;;;;;7373627;19;109512;-86
2022/11/07 01:08:24;;;;;;;;;;;12.40;99.90;;;;;;7372009;19;108378;-86
2022/11/07 01:10:51;;;;;;;;;;;12.40;99.90;;;;;;7373358;19;108003;-86
2022/11/07 01:13:18;;;;;;;;;;;12.30;99.90;;;;;;7375833;19;108820;-86
2022/11/07 01:15:45;;;;;;;;;;;12.30;99.90;;;;;;7373376;19;109893;-87
2022/11/07 01:18:12;;;;;;;;;;;12.30;99.90;;;;;;7373562;19;108790;-86
2022/11/07 01:20:39;;;;;;;;;;;12.30;99.90;;;;;;7370825;19;108856;-86
2022/11/07 01:23:07;;;;;;;;;;;12.30;99.90;;;;;;7373323;19;108494;-85
2022/11/07 01:25:37;;;;;;;;;;;12.40;99.90;;;;;;7370552;19;109259;-86
2022/11/07 01:28:04;;;;;;;;;;;12.30;99.90;;;;;;7371376;19;108122;-86
2022/11/07 01:30:31;;;;;;;;;;;12.40;99.90;;;;;;7369631;19;108740;-86
2022/11/07 01:32:58;;;;;;;;;;;12.40;99.90;;;;;;7352332;19;109950;-87
2022/11/07 01:35:25;;;;;;;;;;;12.40;99.90;;;;;;7340639;19;109053;-86
2022/11/07 01:37:52;;;;;;;;;;;12.40;99.90;;;;;;7342469;19;110189;-86
2022/11/07 01:40:19;;;;;;;;;;;12.40;99.90;;;;;;7341323;19;108549;-85
2022/11/07 01:42:46;;;;;;;;;;;12.40;99.90;;;;;;7344459;19;112090;-85
2022/11/07 01:45:17;;;;;;;;;;;12.40;99.90;;;;;;7341532;19;110534;-85
2022/11/07 01:47:44;;;;;;;;;;;12.40;99.90;;;;;;7340794;19;108632;-86
2022/11/07 01:50:11;;;;;;;;;;;12.40;99.90;;;;;;7341494;19;109722;-85
2022/11/07 01:52:40;;;;;;;;;;;12.40;99.90;;;;;;7340039;19;110435;-84
2022/11/07 01:55:10;;;;;;;;;;;12.40;99.90;;;;;;7344365;19;109391;-86
2022/11/07 01:57:43;;;;;;;;;;;12.40;99.90;;;;;;7337741;19;110225;-85
2022/11/07 02:00:12;;;;;;;;;;;12.40;99.90;;;;;;7341796;19;108444;-85
2022/11/07 02:02:40;;;;;;;;;;;12.40;99.90;;;;;;7341612;19;109030;-86
2022/11/07 02:05:07;;;;;;;;;;;12.40;99.90;;;;;;7338888;19;112898;-85
2022/11/07 02:07:36;;;;;;;;;;;12.40;99.90;;;;;;7339855;19;108532;-85
2022/11/07 02:10:05;;;;;;;;;;;12.40;99.90;;;;;;7340594;19;108827;-85
2022/11/07 02:12:35;;;;;;;;;;;12.40;99.90;;;;;;7336580;19;129806;-86
2022/11/07 02:15:02;;;;;;;;;;;12.40;99.90;;;;;;7340510;19;109886;-85
2022/11/07 02:17:29;;;;;;;;;;;12.40;99.90;;;;;;7343920;19;111794;-86
2022/11/07 02:19:56;;;;;;;;;;;12.40;99.90;;;;;;7339296;19;109794;-85
2022/11/07 02:22:46;;;;;;;;;;;12.50;99.90;;;;;;7339715;19;109261;-85
2022/11/07 02:25:15;;;;;;;;;;;12.40;99.90;;;;;;7340694;19;113061;-85
2022/11/07 02:27:43;;;;;;;;;;;12.50;99.90;;;;;;7339819;19;108404;-86
2022/11/07 02:30:11;;;;;;;;;;;12.50;99.90;;;;;;7341689;19;113930;-85
2022/11/07 02:32:38;;;;;;;;;;;12.50;99.90;;;;;;7338855;19;110733;-85
2022/11/07 02:35:06;;;;;;;;;;;12.50;99.90;;;;;;7339678;19;108689;-86
2022/11/07 02:37:37;;;;;;;;;;;12.50;99.90;;;;;;7339121;19;108778;-87
2022/11/07 02:40:06;;;;;;;;;;;12.50;99.90;;;;;;7347441;19;108257;-86
2022/11/07 02:42:42;;;;;;;;;;;12.50;99.90;;;;;;7338990;19;110353;-85
2022/11/07 02:45:11;;;;;;;;;;;12.60;99.90;;;;;;7339697;19;110377;-86
2022/11/07 02:47:38;;;;;;;;;;;12.60;99.90;;;;;;7339313;19;109282;-85
2022/11/07 02:50:09;;;;;;;;;;;12.60;99.90;;;;;;7339185;19;109354;-87
2022/11/07 02:52:36;;;;;;;;;;;12.60;99.90;;;;;;7339629;19;110651;-86
2022/11/07 02:55:04;;;;;;;;;;;12.60;99.90;;;;;;7340420;19;108612;-85
2022/11/07 02:57:31;;;;;;;;;;;12.70;99.90;;;;;;7340440;19;108390;-86
2022/11/07 02:59:58;;;;;;;;;;;12.70;99.90;;;;;;7341101;19;109990;-86
2022/11/07 03:02:25;;;;;;;;;;;12.70;99.90;;;;;;7345308;19;109085;-86
2022/11/07 03:04:52;;;;;;;;;;;12.70;99.90;;;;;;7340099;19;110338;-86
2022/11/07 03:07:19;;;;;;;;;;;12.70;99.90;;;;;;7339863;19;108856;-86
2022/11/07 03:09:46;;;;;;;;;;;12.70;99.90;;;;;;7341126;19;108543;-86
2022/11/07 03:12:13;;;;;;;;;;;12.70;99.90;;;;;;7337902;19;110586;-86
2022/11/07 03:14:40;;;;;;;;;;;12.70;99.90;;;;;;7340498;19;109467;-86
2022/11/07 03:17:07;;;;;;;;;;;12.80;99.90;;;;;;7340528;19;109436;-86
2022/11/07 03:19:33;;;;;;;;;;;12.80;99.90;;;;;;7339580;19;110160;-86
2022/11/07 03:22:00;;;;;;;;;;;12.80;99.90;;;;;;7338817;19;108438;-86
2022/11/07 03:24:27;;;;;;;;;;;12.80;99.90;;;;;;7341927;19;108946;-85
2022/11/07 03:26:54;;;;;;;;;;;12.80;99.90;;;;;;7338719;19;108945;-86
2022/11/07 03:29:21;;;;;;;;;;;12.90;99.90;;;;;;7339293;19;108910;-84
2022/11/07 03:31:48;;;;;;;;;;;12.90;99.90;;;;;;7339922;19;110699;-86
2022/11/07 03:34:15;;;;;;;;;;;12.90;99.90;;;;;;7336577;19;109343;-87
2022/11/07 03:36:42;;;;;;;;;;;12.90;99.90;;;;;;7339537;19;109177;-86
2022/11/07 03:39:08;;;;;;;;;;;12.90;99.90;;;;;;7337987;19;110683;-85
2022/11/07 03:41:35;;;;;;;;;;;12.90;99.90;;;;;;7337702;19;108598;-87
2022/11/07 03:44:02;;;;;;;;;;;12.90;99.90;;;;;;7346350;19;112015;-85
2022/11/07 03:46:29;;;;;;;;;;;12.90;99.90;;;;;;7340437;19;108446;-86
2022/11/07 03:48:56;;;;;;;;;;;12.80;99.90;;;;;;7339954;19;109636;-87
2022/11/07 03:51:23;;;;;;;;;;;12.80;99.90;;;;;;7336068;19;111637;-86
2022/11/07 03:53:50;;;;;;;;;;;12.80;99.90;;;;;;7340299;19;108949;-86
2022/11/07 03:56:17;;;;;;;;;;;12.80;99.90;;;;;;7335886;19;111570;-85
2022/11/07 03:58:44;;;;;;;;;;;12.80;99.90;;;;;;7336836;19;113507;-86
2022/11/07 04:01:12;;;;;;;;;;;12.70;99.90;;;;;;7336282;19;108375;-85
2022/11/07 04:03:39;;;;;;;;;;;12.70;99.90;;;;;;7335890;19;109833;-86
2022/11/07 04:06:06;;;;;;;;;;;12.70;99.90;;;;;;7341031;19;110581;-86
2022/11/07 04:08:32;;;;;;;;;;;12.70;99.90;;;;;;7335424;19;111907;-86
2022/11/07 04:10:59;;;;;;;;;;;12.70;99.90;;;;;;7338652;19;112690;-87
2022/11/07 04:19:00;;;;;;;;;;;12.70;99.90;;;;;;7339243;19;110474;-86
2022/11/07 04:21:27;;;;;;;;;;;12.70;99.90;;;;;;7342675;19;108341;-86
2022/11/07 04:23:54;;;;;;;;;;;12.60;99.90;;;;;;7343716;19;108221;-87
2022/11/07 04:29:06;;;;;;;;;;;12.60;99.90;;;;;;7349393;19;108449;-85
2022/11/07 04:31:33;;;;;;;;;;;12.60;99.90;;;;;;7341933;19;113447;-86
2022/11/07 04:34:00;;;;;;;;;;;12.60;99.90;;;;;;7345708;19;108617;-85
2022/11/07 04:36:27;;;;;;;;;;;12.60;99.90;;;;;;7340746;19;108898;-86
2022/11/07 04:38:54;;;;;;;;;;;12.60;99.90;;;;;;7344342;19;110220;-86
2022/11/07 04:41:22;;;;;;;;;;;12.60;99.90;;;;;;7339927;19;109006;-86
2022/11/07 04:43:49;;;;;;;;;;;12.60;99.90;;;;;;7345211;19;109303;-86
2022/11/07 04:46:16;;;;;;;;;;;12.60;99.90;;;;;;7341580;19;110376;-86
2022/11/07 04:48:43;;;;;;;;;;;12.60;99.90;;;;;;7342047;19;108533;-86
2022/11/07 04:51:12;;;;;;;;;;;12.60;99.90;;;;;;7348817;19;109590;-85
2022/11/07 04:53:39;;;;;;;;;;;12.70;99.90;;;;;;7341187;19;108837;-87
2022/11/07 04:56:06;;;;;;;;;;;12.70;99.90;;;;;;7342467;19;112228;-86
2022/11/07 04:58:33;;;;;;;;;;;12.70;99.90;;;;;;7340757;19;110522;-86
2022/11/07 05:01:00;;;;;;;;;;;12.70;99.90;;;;;;7344150;19;109966;-86
2022/11/07 05:03:27;;;;;;;;;;;12.70;99.90;;;;;;7342438;19;109582;-85
2022/11/07 05:05:54;;;;;;;;;;;12.70;99.90;;;;;;7344398;19;110101;-86
2022/11/07 05:08:21;;;;;;;;;;;12.80;99.90;;;;;;7346540;19;108913;-86
2022/11/07 05:10:47;;;;;;;;;;;12.80;99.90;;;;;;7345044;19;109283;-85
2022/11/07 05:13:14;;;;;;;;;;;12.80;99.90;;;;;;7349746;19;110129;-88
2022/11/07 05:15:42;;;;;;;;;;;12.90;99.90;;;;;;7345467;19;108372;-86
2022/11/07 05:18:09;;;;;;;;;;;12.80;99.90;;;;;;7342346;19;110421;-85
2022/11/07 05:20:37;;;;;;;;;;;12.90;99.90;;;;;;7338198;19;109706;-86
2022/11/07 05:23:14;;;;;;;;;;;12.90;99.90;;;;;;7342769;19;110932;-86
2022/11/07 05:25:51;;;;;;;;;;;12.90;99.90;;;;;;7344405;19;110252;-87
2022/11/07 05:28:20;;;;;;;;;;;12.90;99.90;;;;;;7339626;19;108226;-85
2022/11/07 05:30:58;;;;;;;;;;;12.90;99.90;;;;;;7343236;19;109243;-87
2022/11/07 05:33:25;;;;;;;;;;;12.90;99.90;;;;;;7338948;19;113464;-85
2022/11/07 05:35:52;;;;;;;;;;;12.90;99.90;;;;;;7347856;19;109402;-86
2022/11/07 05:38:19;;;;;;;;;;;12.90;99.90;;;;;;7338062;19;110633;-86
2022/11/07 05:40:45;;;;;;;;;;;13.00;99.90;;;;;;7342947;19;108459;-86
2022/11/07 05:43:13;;;;;;;;;;;13.00;99.90;;;;;;7335955;19;109671;-87
2022/11/07 05:45:40;;;;;;;;;;;13.00;99.90;;;;;;7338874;19;110413;-87
2022/11/07 05:48:09;;;;;;;;;;;13.00;99.90;;;;;;7336127;19;108624;-86
2022/11/07 05:50:36;;;;;;;;;;;13.00;99.90;;;;;;7337283;19;109710;-87
2022/11/07 05:53:03;;;;;;;;;;;13.00;99.90;;;;;;7335450;19;110015;-87
2022/11/07 05:55:32;;;;;;;;;;;13.00;99.90;;;;;;7340243;19;108981;-86
2022/11/07 05:57:58;;;;;;;;;;;13.00;99.90;;;;;;7336602;19;109784;-87
2022/11/07 06:00:32;;;;;;;;;;;13.00;99.90;;;;;;7337301;19;108670;-86
2022/11/07 06:02:59;;;;;;;;;;;13.10;99.90;;;;;;7334046;19;111778;-87
2022/11/07 06:05:27;;;;;;;;;;;13.10;99.90;;;;;;7333858;19;110359;-86
2022/11/07 06:07:54;;;;;;;;;;;13.00;99.90;;;;;;7337702;19;110002;-87
2022/11/07 06:10:21;;;;;;;;;;;13.10;99.90;;;;;;7336021;19;109689;-86
2022/11/07 06:13:03;;;;;;;;;;;13.10;99.90;;;;;;7334501;19;113119;-87
2022/11/07 06:15:31;;;;;;;;;;;13.10;99.90;;;;;;7335018;19;108644;-86
2022/11/07 06:17:59;;;;;;;;;;;13.10;99.90;;;;;;7339279;19;112282;-85
2022/11/07 06:20:26;;;;;;;;;;;13.10;99.90;;;;;;7334814;19;109070;-87
2022/11/07 06:23:00;;;;;;;;;;;13.10;99.90;;;;;;7333992;19;109328;-87
2022/11/07 06:25:27;;;;;;;;;;;13.20;99.90;;;;;;7334244;19;109260;-86
2022/11/07 06:27:58;;;;;;;;;;;13.20;99.90;;;;;;7336253;19;109146;-86
2022/11/07 06:30:25;;;;;;;;;;;13.20;99.90;;;;;;7333646;19;108904;-87
2022/11/07 06:32:52;;;;;;;;;;;13.20;99.90;;;;;;7336199;19;110739;-87
2022/11/07 06:35:19;;;;;;;;;;;13.20;99.90;;;;;;7332585;19;108929;-87
2022/11/07 06:37:46;;;;;;;;;;;13.20;99.90;;;;;;7334901;19;109113;-88
2022/11/07 06:40:13;;;;;;;;;;;13.20;99.90;;;;;;7340577;19;109342;-87
2022/11/07 06:42:40;;;;;;;;;;;13.30;99.90;;;;;;7334125;19;109498;-87
2022/11/07 06:45:07;;;;;;;;;;;13.30;99.90;;;;;;7332177;19;111463;-87
2022/11/07 06:47:34;;;;;;;;;;;13.30;99.90;;;;;;7334415;19;108734;-88
2022/11/07 06:50:00;;;;;;;;;;;13.30;99.90;;;;;;7336394;19;109242;-87
2022/11/07 06:52:28;;;;;;;;;;;13.30;99.90;;;;;;7335070;19;110381;-87
2022/11/07 06:54:54;;;;;;;;;;;13.30;99.90;;;;;;7336180;19;108414;-86
2022/11/07 06:57:21;;;;;;;;;;;13.30;99.90;;;;;;7333333;19;111231;-86
2022/11/07 06:59:48;;;;;;;;;;;13.40;99.90;;;;;;7335477;19;110791;-88
2022/11/07 07:02:17;;;;;;;;;;;13.40;99.90;;;;;;7337030;19;110174;-85
2022/11/07 07:05:05;;;;;;;;;;;13.40;99.90;;;;;;7335359;19;112954;-87
2022/11/07 07:07:31;;;;;;;;;;;13.40;99.90;;;;;;7333401;19;109448;-87
2022/11/07 07:09:58;;;;;;;;;;;13.40;99.90;;;;;;7333716;19;109212;-87
2022/11/07 07:12:25;;;;;;;;;;;13.40;99.90;;;;;;7333401;19;110251;-87
2022/11/07 07:14:52;;;;;;;;;;;13.40;99.90;;;;;;7334270;19;109719;-87
2022/11/07 07:17:19;;;;;;;;;;;13.40;99.90;;;;;;7335179;19;109188;-87
2022/11/07 07:19:46;;;;;;;;;;;13.40;99.90;;;;;;7334330;19;112131;-87
2022/11/07 07:22:13;;;;;;;;;;;13.40;99.90;;;;;;7332818;19;109823;-88
2022/11/07 07:24:40;;;;;;;;;;;13.40;99.90;;;;;;7341164;19;109734;-87
2022/11/07 07:27:07;;;;;;;;;;;13.40;99.90;;;;;;7333656;19;109927;-87
2022/11/07 07:29:33;;;;;;;;;;;13.50;99.90;;;;;;7334363;19;108498;-86
2022/11/07 07:32:00;;;;;;;;;;;13.50;99.90;;;;;;7331699;19;110075;-86
2022/11/07 07:34:27;;;;;;;;;;;13.50;99.90;;;;;;7333150;19;108906;-87
2022/11/07 07:36:54;;;;;;;;;;;13.50;99.90;;;;;;7332294;19;109300;-87
2022/11/07 07:39:22;;;;;;;;;;;13.50;99.90;;;;;;7332294;19;112967;-87
2022/11/07 07:41:50;;;;;;;;;;;13.50;99.90;;;;;;7334388;19;108388;-87
2022/11/07 07:44:17;;;;;;;;;;;13.50;99.90;;;;;;7338929;19;109223;-89
2022/11/07 07:46:44;;;;;;;;;;;13.50;99.90;;;;;;7334089;19;108963;-87
2022/11/07 07:49:11;;;;;;;;;;;13.50;99.90;;;;;;7333713;19;109391;-86
2022/11/07 07:51:38;;;;;;;;;;;13.60;99.90;;;;;;7332035;19;110721;-86
2022/11/07 07:54:05;;;;;;;;;;;13.60;99.90;;;;;;7336389;19;109391;-86
2022/11/07 07:56:32;;;;;;;;;;;13.60;99.90;;;;;;7338818;19;109126;-87
2022/11/07 07:58:59;;;;;;;;;;;13.60;99.90;;;;;;7338592;19;109776;-87
2022/11/07 08:01:26;;;;;;;;;;;13.60;99.90;;;;;;7339099;19;108404;-88
2022/11/07 08:03:53;;;;;;;;;;;13.70;99.90;;;;;;7340169;19;109503;-87
2022/11/07 08:06:29;;;;;;;;;;;13.70;99.90;;;;;;7346689;19;112656;-87
2022/11/07 08:08:56;;;;;;;;;;;13.70;99.90;;;;;;7343262;19;109872;-88
2022/11/07 08:11:23;;;;;;;;;;;13.70;99.90;;;;;;7338848;19;113626;-87
2022/11/07 08:13:50;;;;;;;;;;;13.70;99.90;;;;;;7342769;19;109439;-87
2022/11/07 08:16:16;;;;;;;;;;;13.70;99.90;;;;;;7343006;19;109034;-87
2022/11/07 08:18:43;;;;;;;;;;;13.70;99.90;;;;;;7339873;19;110338;-87
2022/11/07 08:21:10;;;;;;;;;;;13.70;99.90;;;;;;7342000;19;108403;-88
2022/11/07 08:23:37;;;;;;;;;;;13.80;99.90;;;;;;7339032;19;110170;-87
2022/11/07 08:26:05;;;;;;;;;;;13.80;99.90;;;;;;7347569;19;112870;-89
2022/11/07 08:28:34;;;;;;;;;;;13.80;99.90;;;;;;7377235;19;108577;-87
2022/11/07 08:31:03;;;;;;;;;;;13.80;99.90;;;;;;7372726;19;110113;-88
2022/11/07 08:33:30;;;;;;;;;;;13.80;99.90;;;;;;7370253;19;109453;-88
2022/11/07 08:36:01;;;;;;;;;;;13.90;99.90;;;;;;7372825;19;108659;-87
2022/11/07 08:38:29;;;;;;;;;;;13.90;99.90;;;;;;7369793;19;108734;-87
2022/11/07 08:40:56;;;;;;;;;;;13.90;99.90;;;;;;7371032;19;108081;-88
2022/11/07 08:43:23;;;;;;;;;;;13.90;99.90;;;;;;7371377;19;108071;-88
2022/11/07 08:45:51;;;;;;;;;;;13.90;99.90;;;;;;7370295;19;109224;-89
2022/11/07 08:48:18;;;;;;;;;;;14.00;99.90;;;;;;7369731;19;108186;-88
2022/11/07 08:50:45;;;;;;;;;;;14.00;99.90;;;;;;7378730;19;107724;-88
2022/11/07 08:53:12;;;;;;;;;;;14.00;99.90;;;;;;7370441;19;107980;-88
2022/11/07 08:55:39;;;;;;;;;;;14.00;99.90;;;;;;7371073;19;109226;-88
2022/11/07 08:58:06;;;;;;;;;;;14.00;99.90;;;;;;7370618;19;109142;-87
2022/11/07 09:00:34;;;;;;;;;;;14.10;99.90;;;;;;7370513;19;108301;-88
2022/11/07 09:03:02;;;;;;;;;;;14.10;99.90;;;;;;7371492;19;110353;-88
2022/11/07 09:05:49;;;;;;;;;;;14.10;99.90;;;;;;7366994;19;110480;-88
2022/11/07 09:08:16;;;;;;;;;;;14.10;99.90;;;;;;7368953;19;108730;-87
2022/11/07 09:10:43;;;;;;;;;;;14.20;99.90;;;;;;7369195;19;110498;-88
2022/11/07 09:13:10;;;;;;;;;;;14.20;99.90;;;;;;7374998;19;112380;-87
2022/11/07 09:15:37;;;;;;;;;;;14.20;99.90;;;;;;7365604;19;109626;-88
2022/11/07 09:18:04;;;;;;;;;;;14.20;99.90;;;;;;7367644;19;110325;-87
2022/11/07 09:20:32;;;;;;;;;;;14.30;99.90;;;;;;7367475;19;108134;-87
2022/11/07 09:22:59;;;;;;;;;;;14.30;99.90;;;;;;7342677;19;110295;-87
2022/11/07 09:25:26;;;;;;;;;;;14.40;99.90;;;;;;7336008;19;112605;-87
2022/11/07 09:27:54;;;;;;;;;;;14.40;99.90;;;;;;7339864;19;109119;-87
2022/11/07 09:30:21;;;;;;;;;;;14.40;99.90;;;;;;7337115;19;112866;-87
2022/11/07 09:32:48;;;;;;;;;;;14.50;99.90;;;;;;7338048;19;110136;-87
2022/11/07 09:35:15;;;;;;;;;;;14.50;99.90;;;;;;7343023;19;108417;-87
2022/11/07 09:37:42;;;;;;;;;;;14.50;99.90;;;;;;7338642;19;112795;-87
2022/11/07 09:40:18;;;;;;;;;;;14.60;99.90;;;;;;7337738;19;108992;-87
2022/11/07 09:42:54;;;;;;;;;;;14.60;99.90;;;;;;7337114;19;109225;-88
2022/11/07 09:45:21;;;;;;;;;;;14.60;99.90;;;;;;7335168;19;110950;-87
2022/11/07 09:47:54;;;;;;;;;;;14.70;99.90;;;;;;7336314;19;108317;-87
2022/11/07 09:50:23;;;;;;;;;;;14.70;99.90;;;;;;7336530;19;108774;-87
2022/11/07 09:52:57;;;;;;;;;;;14.80;99.90;;;;;;7336847;19;109372;-87
2022/11/07 09:55:30;;;;;;;;;;;14.80;99.90;;;;;;7345309;19;108741;-88
2022/11/07 09:57:59;;;;;;;;;;;14.90;99.90;;;;;;7335341;19;110203;-87
2022/11/07 10:00:29;;;;;;;;;;;15.00;99.90;;;;;;7333726;19;108387;-87
2022/11/07 10:02:57;;;;;;;;;;;15.10;99.90;;;;;;7335945;19;109217;-87
2022/11/07 10:05:33;;;;;;;;;;;15.10;99.90;;;;;;7335487;19;110557;-91
2022/11/07 10:08:08;;;;;;;;;;;15.20;99.90;;;;;;7337894;19;109492;-91
2022/11/07 10:10:44;;;;;;;;;;;15.20;99.90;;;;;;7336723;19;111876;-91
2022/11/07 10:13:30;;;;;;;;;;;15.30;99.90;;;;;;7338355;19;110023;-92
2022/11/07 10:16:15;;;;;;;;;;;15.40;99.90;;;;;;7342007;19;108285;-89
2022/11/07 10:18:58;;;;;;;;;;;15.50;99.90;;;;;;7346130;19;108874;-90
2022/11/07 10:21:51;;;;;;;;;;;15.60;99.90;;;;;;7339114;19;109033;-91
2022/11/07 10:24:31;;;;;;;;;;;15.60;99.90;;;;;;7338546;19;109299;-91
2022/11/07 10:26:58;;;;;;;;;;;15.60;99.90;;;;;;7339157;19;109334;-91
2022/11/07 10:29:28;;;;;;;;;;;15.60;99.90;;;;;;7340143;19;108723;-92
2022/11/07 10:32:13;;;;;;;;;;;15.60;99.90;;;;;;7340266;19;108467;-90
2022/11/07 10:34:43;;;;;;;;;;;15.60;99.90;;;;;;7338749;19;111257;-90
2022/11/07 10:37:09;;;;;;;;;;;15.60;99.90;;;;;;7340848;19;108716;-91
2022/11/07 10:39:36;;;;;;;;;;;15.60;99.90;;;;;;7338512;19;112428;-92
2022/11/07 10:42:06;;;;;;;;;;;15.50;99.90;;;;;;7342848;19;110209;-91
2022/11/07 10:44:34;;;;;;;;;;;15.50;99.90;;;;;;7337694;19;109371;-91
2022/11/07 10:47:02;;;;;;;;;;;15.60;99.90;;;;;;7339024;19;109142;-91
2022/11/07 10:49:29;;;;;;;;;;;15.70;99.90;;;;;;7338618;19;108368;-90
2022/11/07 10:52:15;;;;;;;;;;;15.70;99.90;;;;;;7338163;19;108947;-90
2022/11/07 10:54:43;;;;;;;;;;;15.70;99.90;;;;;;7339463;19;112887;-90
2022/11/07 10:57:21;;;;;;;;;;;15.80;99.90;;;;;;7337347;19;108421;-90
2022/11/07 10:59:48;;;;;;;;;;;15.80;99.90;;;;;;7338161;19;108996;-91
2022/11/07 11:02:20;;;;;;;;;;;15.80;99.90;;;;;;7336641;19;109192;-91
2022/11/07 11:04:57;;;;;;;;;;;15.80;99.90;;;;;;7343211;19;108373;-90
2022/11/07 11:07:25;;;;;;;;;;;15.80;99.90;;;;;;7337229;19;109706;-91
2022/11/07 11:09:57;;;;;;;;;;;15.80;99.90;;;;;;7340045;19;109393;-91
2022/11/07 11:12:25;;;;;;;;;;;15.80;99.90;;;;;;7335154;19;108205;-90
2022/11/07 11:15:09;;;;;;;;;;;15.80;99.90;;;;;;7338764;19;110199;-90
2022/11/07 11:17:36;;;;;;;;;;;15.80;99.90;;;;;;7336772;19;109005;-90
2022/11/07 11:20:03;;;;;;;;;;;15.90;99.90;;;;;;7338818;19;112218;-91
2022/11/07 11:22:31;;;;;;;;;;;15.80;99.90;;;;;;7337213;19;110310;-91
2022/11/07 11:25:03;;;;;;;;;;;15.80;99.90;;;;;;7336597;19;108390;-90
2022/11/07 11:27:31;;;;;;;;;;;15.70;99.90;;;;;;7342704;19;109315;-90
2022/11/07 11:30:06;;;;;;;;;;;15.80;99.90;;;;;;7344398;19;109036;-91
2022/11/07 11:32:36;;;;;;;;;;;15.80;99.90;;;;;;7345129;19;109900;-90
2022/11/07 11:35:26;;;;;;;;;;;15.70;99.90;;;;;;7344721;19;112365;-90
2022/11/07 11:37:57;;;;;;;;;;;15.80;99.90;;;;;;7345023;19;108444;-91
2022/11/07 11:40:24;;;;;;;;;;;15.80;99.90;;;;;;7345497;19;110455;-90
2022/11/07 11:42:59;;;;;;;;;;;15.90;99.90;;;;;;7342540;19;109930;-90
2022/11/07 11:45:38;;;;;;;;;;;15.90;99.90;;;;;;7343808;19;108985;-90
2022/11/07 11:48:20;;;;;;;;;;;16.00;99.90;;;;;;7341722;19;110574;-90
2022/11/07 11:50:53;;;;;;;;;;;16.10;99.90;;;;;;7348570;19;110938;-90
2022/11/07 11:53:20;;;;;;;;;;;16.20;99.90;;;;;;7343622;19;108446;-91
2022/11/07 11:56:03;;;;;;;;;;;16.20;99.90;;;;;;7343474;19;109349;-91
2022/11/07 11:58:48;;;;;;;;;;;16.30;99.90;;;;;;7344023;19;109101;-91
2022/11/07 12:01:21;;;;;;;;;;;16.30;99.90;;;;;;7343880;19;109852;-90
2022/11/07 12:04:07;;;;;;;;;;;16.30;99.90;;;;;;7342119;19;111217;-92
2022/11/07 12:06:41;;;;;;;;;;;16.30;99.90;;;;;;7341463;19;109123;-90
2022/11/07 12:09:17;;;;;;;;;;;16.30;99.90;;;;;;7344493;19;108803;-90
2022/11/07 12:12:00;;;;;;;;;;;16.30;99.90;;;;;;7350007;19;108960;-91
2022/11/07 12:14:30;;;;;;;;;;;16.30;99.90;;;;;;7343235;19;108606;-90
2022/11/07 12:17:06;;;;;;;;;;;16.30;99.90;;;;;;7342758;19;109421;-90
2022/11/07 12:19:39;;;;;;;;;;;16.30;99.90;;;;;;7343177;19;108299;-91
2022/11/07 12:22:23;;;;;;;;;;;16.30;99.90;;;;;;7342836;19;109767;-91
2022/11/07 12:25:00;;;;;;;;;;;16.30;99.90;;;;;;7342156;19;109515;-91
2022/11/07 12:27:39;;;;;;;;;;;16.30;99.90;;;;;;7342839;19;108436;-91
2022/11/07 12:30:16;;;;;;;;;;;16.30;99.90;;;;;;7342331;19;109214;-91
2022/11/07 12:32:49;;;;;;;;;;;16.20;99.90;;;;;;7342906;19;110310;-90
2022/11/07 12:35:19;;;;;;;;;;;16.20;99.90;;;;;;7345922;19;109128;-91
2022/11/07 12:37:46;;;;;;;;;;;16.20;99.90;;;;;;7340978;19;111167;-91
2022/11/07 12:40:28;;;;;;;;;;;16.20;99.90;;;;;;7341696;19;108665;-90
2022/11/07 12:42:57;;;;;;;;;;;16.30;99.90;;;;;;7343460;19;109570;-91
2022/11/07 12:45:44;;;;;;;;;;;16.30;99.90;;;;;;7341982;19;110278;-90
2022/11/07 12:48:19;;;;;;;;;;;16.40;99.90;;;;;;7340268;19;108991;-90
2022/11/07 12:50:46;;;;;;;;;;;16.30;99.90;;;;;;7341571;19;108479;-91
2022/11/07 12:53:25;;;;;;;;;;;16.30;99.90;;;;;;7342707;19;110253;-91
2022/11/07 12:56:01;;;;;;;;;;;16.30;99.90;;;;;;7341185;19;108376;-91
2022/11/07 12:58:31;;;;;;;;;;;16.40;99.90;;;;;;7347142;19;109216;-91
2022/11/07 13:00:58;;;;;;;;;;;16.40;99.90;;;;;;7342026;19;108353;-90
2022/11/07 13:03:44;;;;;;;;;;;16.40;99.90;;;;;;7340970;19;108153;-92
2022/11/07 13:06:14;;;;;;;;;;;16.40;99.90;;;;;;7342152;19;110265;-90
2022/11/07 13:08:59;;;;;;;;;;;16.50;99.90;;;;;;7343330;19;108494;-91
2022/11/07 13:11:41;;;;;;;;;;;16.50;99.90;;;;;;7339104;19;111914;-91
2022/11/07 13:14:11;;;;;;;;;;;16.50;99.90;;;;;;7341512;19;109665;-91
2022/11/07 13:16:47;;;;;;;;;;;16.50;99.90;;;;;;7340390;19;109109;-91
2022/11/07 13:19:33;;;;;;;;;;;16.50;99.90;;;;;;7341884;19;109416;-90
2022/11/07 13:22:01;;;;;;;;;;;16.40;99.90;;;;;;7347122;19;110641;-90
2022/11/07 13:24:29;;;;;;;;;;;16.50;99.90;;;;;;7338961;19;110480;-91
2022/11/07 13:26:56;;;;;;;;;;;16.50;99.90;;;;;;7341074;19;111115;-91
2022/11/07 13:29:34;;;;;;;;;;;16.50;99.90;;;;;;7340621;19;109166;-90
2022/11/07 13:32:08;;;;;;;;;;;16.60;99.90;;;;;;7339854;19;108693;-90
2022/11/07 13:34:43;;;;;;;;;;;16.60;99.90;;;;;;7338607;19;109210;-91
2022/11/07 13:37:19;;;;;;;;;;;16.60;99.90;;;;;;7340261;19;108437;-91
2022/11/07 13:39:47;;;;;;;;;;;16.60;99.90;;;;;;7341548;19;109436;-91
2022/11/07 13:42:16;;;;;;;;;;;16.60;99.90;;;;;;7340964;19;110297;-90
2022/11/07 13:44:48;;;;;;;;;;;16.50;99.90;;;;;;7346872;19;108890;-91
2022/11/07 13:47:17;;;;;;;;;;;16.50;99.90;;;;;;7339217;19;112658;-90
2022/11/07 13:49:45;;;;;;;;;;;16.60;99.90;;;;;;7341591;19;109235;-90
2022/11/07 13:52:24;;;;;;;;;;;16.60;99.90;;;;;;7340082;19;109215;-91
2022/11/07 13:54:55;;;;;;;;;;;16.50;99.90;;;;;;7339765;19;110312;-90
2022/11/07 13:57:43;;;;;;;;;;;16.50;99.90;;;;;;7339790;19;109499;-90
2022/11/07 14:00:13;;;;;;;;;;;16.50;99.90;;;;;;7342426;19;113636;-90
2022/11/07 14:02:54;;;;;;;;;;;16.50;99.90;;;;;;7338538;19;110537;-90
2022/11/07 14:05:23;;;;;;;;;;;16.50;99.90;;;;;;7339528;19;108342;-91
2022/11/07 14:07:53;;;;;;;;;;;16.50;99.90;;;;;;7346256;19;109489;-91
2022/11/07 14:10:20;;;;;;;;;;;16.50;99.90;;;;;;7337612;19;110664;-91
2022/11/07 14:12:47;;;;;;;;;;;16.50;99.90;;;;;;7340494;19;109925;-91
2022/11/07 14:15:15;;;;;;;;;;;16.50;99.90;;;;;;7339640;19;109212;-91
2022/11/07 14:17:42;;;;;;;;;;;16.50;99.90;;;;;;7340311;19;108250;-90
2022/11/07 14:20:16;;;;;;;;;;;16.40;99.90;;;;;;7337479;19;109000;-90
2022/11/07 14:22:55;;;;;;;;;;;16.40;99.90;;;;;;7339779;19;110745;-90
2022/11/07 14:25:32;;;;;;;;;;;16.40;99.90;;;;;;7336755;19;108298;-91
2022/11/07 14:28:00;;;;;;;;;;;16.40;99.90;;;;;;7344130;19;109018;-91
2022/11/07 14:30:28;;;;;;;;;;;16.40;99.90;;;;;;7339576;19;108299;-90